createdAt,value
2023-02-01T00:00:30.687Z,18.40
2023-02-01T00:02:57.356Z,18.30
2023-02-01T00:05:24.108Z,18.30
2023-02-01T00:07:50.809Z,16.90
2023-02-01T00:10:18.376Z,18.30
2023-02-01T00:12:45.447Z,18.30
2023-02-01T00:15:12.467Z,18.30
2023-02-01T00:17:39.175Z,18.30
2023-02-01T00:20:06.630Z,18.30
2023-02-01T00:22:33.245Z,18.30
2023-02-01T00:24:59.921Z,18.30
2023-02-01T00:27:26.568Z,18.30
2023-02-01T00:29:55.921Z,18.30
2023-02-01T00:32:22.618Z,18.30
2023-02-01T00:34:49.306Z,18.30
2023-02-01T00:37:15.953Z,18.30
2023-02-01T00:39:43.711Z,18.30
2023-02-01T00:42:11.032Z,18.20
2023-02-01T00:44:37.716Z,18.30
2023-02-01T00:47:04.363Z,18.30
2023-02-01T00:49:30.978Z,18.30
2023-02-01T00:51:57.626Z,18.30
2023-02-01T00:54:24.241Z,18.20
2023-02-01T00:56:50.902Z,18.30
2023-02-01T00:59:17.523Z,18.20
2023-02-01T01:01:44.307Z,18.20
2023-02-01T01:04:11.185Z,18.20
2023-02-01T01:06:38.123Z,18.30
2023-02-01T01:09:06.526Z,18.20
2023-02-01T01:11:36.888Z,18.20
2023-02-01T01:14:04.828Z,18.20
2023-02-01T01:16:32.738Z,18.20
2023-02-01T01:19:00.036Z,18.20
2023-02-01T01:21:27.124Z,18.20
2023-02-01T01:23:54.280Z,18.20
2023-02-01T01:26:23.954Z,18.20
2023-02-01T01:28:51.812Z,18.20
2023-02-01T01:31:20.292Z,18.20
2023-02-01T01:33:50.642Z,18.20
2023-02-01T01:36:17.360Z,18.20
2023-02-01T01:38:44.267Z,18.20
2023-02-01T01:41:16.536Z,18.20
2023-02-01T01:43:56.506Z,18.10
2023-02-01T01:46:29.437Z,18.10
2023-02-01T01:49:21.398Z,18.20
2023-02-01T01:51:55.918Z,18.10
2023-02-01T01:54:28.141Z,18.10
2023-02-01T01:56:58.132Z,18.10
2023-02-01T01:59:26.138Z,18.20
2023-02-01T02:01:53.627Z,18.10
2023-02-01T02:04:20.935Z,18.10
2023-02-01T02:06:56.373Z,18.10
2023-02-01T02:09:23.077Z,18.10
2023-02-01T02:11:49.775Z,18.10
2023-02-01T02:14:19.834Z,18.10
2023-02-01T02:16:59.595Z,18.10
2023-02-01T02:19:38.592Z,18.10
2023-02-01T02:22:40.435Z,18.10
2023-02-01T02:25:21.951Z,18.10
2023-02-01T02:28:17.365Z,18.10
2023-02-01T02:30:56.795Z,18.10
2023-02-01T02:33:54.975Z,18.10
2023-02-01T02:36:34.032Z,18.10
2023-02-01T02:39:17.227Z,18.10
2023-02-01T02:42:25.042Z,18.10
2023-02-01T02:45:20.846Z,18.10
2023-02-01T02:48:09.460Z,18.10
2023-02-01T02:51:32.261Z,18.10
2023-02-01T02:54:34.840Z,18.00
2023-02-01T02:57:23.434Z,18.10
2023-02-01T03:00:08.839Z,18.00
2023-02-01T03:02:54.523Z,18.10
2023-02-01T03:05:21.757Z,18.00
2023-02-01T03:08:03.624Z,18.00
2023-02-01T03:10:55.417Z,18.00
2023-02-01T03:13:46.129Z,18.00
2023-02-01T03:16:23.897Z,18.00
2023-02-01T03:19:03.135Z,18.00
2023-02-01T03:21:38.436Z,18.00
2023-02-01T03:24:17.156Z,18.00
2023-02-01T03:26:52.911Z,18.00
2023-02-01T03:29:27.578Z,18.00
2023-02-01T03:31:54.351Z,18.00
2023-02-01T03:34:21.093Z,18.00
2023-02-01T03:36:53.145Z,18.00
2023-02-01T03:39:33.659Z,18.00
2023-02-01T03:42:05.221Z,18.00
2023-02-01T03:44:41.206Z,18.00
2023-02-01T03:47:20.937Z,18.00
2023-02-01T03:49:53.148Z,18.00
2023-02-01T03:52:24.976Z,18.00
2023-02-01T03:54:53.372Z,18.00
2023-02-01T03:57:27.448Z,18.00
2023-02-01T03:59:54.269Z,18.00
2023-02-01T04:02:21.050Z,18.00
2023-02-01T04:04:47.703Z,18.00
2023-02-01T04:07:14.335Z,18.00
2023-02-01T04:09:40.933Z,18.00
2023-02-01T04:12:07.703Z,18.00
2023-02-01T04:14:34.342Z,18.00
2023-02-01T04:17:00.966Z,18.00
2023-02-01T04:19:27.583Z,18.00
2023-02-01T04:21:54.173Z,17.90
2023-02-01T04:24:20.790Z,18.40
2023-02-01T04:26:47.415Z,17.90
2023-02-01T04:29:14.142Z,17.90
2023-02-01T04:31:41.110Z,17.90
2023-02-01T04:34:07.789Z,17.90
2023-02-01T04:36:34.434Z,17.90
2023-02-01T04:39:01.033Z,17.90
2023-02-01T04:41:27.674Z,17.90
2023-02-01T04:43:54.294Z,17.90
2023-02-01T04:46:21.254Z,17.90
2023-02-01T04:48:47.916Z,17.90
2023-02-01T04:51:16.015Z,17.90
2023-02-01T04:53:42.868Z,17.90
2023-02-01T04:56:09.452Z,17.90
2023-02-01T04:58:36.087Z,17.90
2023-02-01T05:01:07.047Z,17.90
2023-02-01T05:03:34.604Z,17.90
2023-02-01T05:06:01.647Z,17.90
2023-02-01T05:08:29.665Z,18.00
2023-02-01T05:10:56.461Z,18.00
2023-02-01T05:13:41.977Z,18.00
2023-02-01T05:16:08.672Z,18.00
2023-02-01T05:18:35.487Z,18.00
2023-02-01T05:21:02.739Z,18.00
2023-02-01T05:23:29.358Z,17.90
2023-02-01T05:26:04.893Z,18.00
2023-02-01T05:28:31.476Z,18.00
2023-02-01T05:30:58.131Z,18.00
2023-02-01T05:33:24.885Z,18.00
2023-02-01T05:35:51.494Z,18.00
2023-02-01T05:38:18.226Z,18.00
2023-02-01T05:40:50.328Z,18.00
2023-02-01T05:43:17.186Z,18.00
2023-02-01T05:45:43.917Z,18.10
2023-02-01T05:48:10.529Z,18.10
2023-02-01T05:50:38.302Z,18.10
2023-02-01T05:53:05.024Z,18.10
2023-02-01T05:55:31.739Z,18.20
2023-02-01T05:57:58.418Z,18.20
2023-02-01T06:00:25.573Z,18.20
2023-02-01T06:02:52.368Z,18.20
2023-02-01T06:05:19.074Z,18.20
2023-02-01T06:07:45.670Z,18.20
2023-02-01T06:10:12.254Z,18.10
2023-02-01T06:12:38.850Z,18.10
2023-02-01T06:15:06.135Z,18.10
2023-02-01T06:17:32.731Z,18.10
2023-02-01T06:19:59.340Z,18.10
2023-02-01T06:22:26.112Z,18.10
2023-02-01T06:24:52.699Z,18.10
2023-02-01T06:27:19.306Z,18.10
2023-02-01T06:29:45.882Z,18.10
2023-02-01T06:32:12.763Z,18.10
2023-02-01T06:34:40.469Z,18.10
2023-02-01T06:37:07.066Z,18.10
2023-02-01T06:39:33.910Z,18.10
2023-02-01T06:42:00.492Z,18.10
2023-02-01T06:44:27.100Z,18.10
2023-02-01T06:46:53.729Z,18.10
2023-02-01T06:49:20.719Z,18.10
2023-02-01T06:51:47.398Z,18.20
2023-02-01T06:54:14.402Z,18.10
2023-02-01T06:56:41.059Z,18.20
2023-02-01T06:59:08.601Z,18.20
2023-02-01T07:01:35.471Z,18.30
2023-02-01T07:04:02.075Z,18.30
2023-02-01T07:06:28.778Z,18.30
2023-02-01T07:08:58.441Z,18.30
2023-02-01T07:11:25.322Z,18.40
2023-02-01T07:13:51.981Z,18.40
2023-02-01T07:16:20.189Z,18.40
2023-02-01T07:18:47.585Z,18.40
2023-02-01T07:21:14.419Z,18.40
2023-02-01T07:23:41.034Z,18.40
2023-02-01T07:26:11.832Z,18.40
2023-02-01T07:28:38.553Z,18.40
2023-02-01T07:31:16.157Z,18.50
2023-02-01T07:33:43.093Z,18.50
2023-02-01T07:36:13.624Z,18.50
2023-02-01T07:38:40.354Z,18.50
2023-02-01T07:41:07.745Z,18.50
2023-02-01T07:43:37.560Z,18.50
2023-02-01T07:46:05.424Z,18.50
2023-02-01T07:48:34.516Z,18.50
2023-02-01T07:51:13.107Z,18.50
2023-02-01T07:53:40.424Z,18.50
2023-02-01T07:56:18.485Z,18.60
2023-02-01T07:58:52.327Z,18.60
2023-02-01T08:01:21.983Z,18.60
2023-02-01T08:03:49.801Z,18.60
2023-02-01T08:06:16.788Z,18.60
2023-02-01T08:08:45.932Z,18.60
2023-02-01T08:11:13.505Z,18.70
2023-02-01T08:13:40.480Z,18.60
2023-02-01T08:16:09.848Z,18.60
2023-02-01T08:18:38.423Z,18.60
2023-02-01T08:21:14.730Z,18.70
2023-02-01T08:23:42.348Z,18.70
2023-02-01T08:26:18.929Z,18.70
2023-02-01T08:28:49.586Z,18.70
2023-02-01T08:31:18.496Z,18.70
2023-02-01T08:33:50.010Z,18.70
2023-02-01T08:36:17.024Z,18.70
2023-02-01T08:38:43.635Z,18.70
2023-02-01T08:41:12.740Z,18.70
2023-02-01T08:43:39.916Z,18.70
2023-02-01T08:46:07.172Z,18.70
2023-02-01T08:48:35.058Z,18.70
2023-02-01T08:51:04.142Z,18.70
2023-02-01T08:53:30.772Z,18.70
2023-02-01T08:55:57.383Z,18.70
2023-02-01T08:58:23.996Z,18.70
2023-02-01T09:00:50.993Z,18.70
2023-02-01T09:03:17.741Z,18.70
2023-02-01T09:05:49.804Z,18.60
2023-02-01T09:08:16.912Z,18.70
2023-02-01T09:10:43.894Z,18.70
2023-02-01T09:13:10.763Z,18.70
2023-02-01T09:15:38.439Z,18.70
2023-02-01T09:18:05.206Z,18.70
2023-02-01T09:20:31.850Z,18.70
2023-02-01T09:22:58.652Z,18.70
2023-02-01T09:25:25.434Z,18.80
2023-02-01T09:27:52.117Z,18.70
2023-02-01T09:30:18.769Z,18.70
2023-02-01T09:32:45.369Z,18.70
2023-02-01T09:35:12.249Z,18.70
2023-02-01T09:37:38.928Z,18.70
2023-02-01T09:40:06.173Z,18.70
2023-02-01T09:42:55.602Z,18.70
2023-02-01T09:45:35.073Z,18.70
2023-02-01T09:48:10.368Z,18.50
2023-02-01T09:50:40.318Z,18.40
2023-02-01T09:53:30.019Z,18.20
2023-02-01T09:56:07.364Z,18.10
2023-02-01T09:58:41.649Z,18.20
2023-02-01T10:01:26.412Z,18.30
2023-02-01T10:04:01.946Z,18.40
2023-02-01T10:06:34.221Z,18.50
2023-02-01T10:09:13.331Z,18.50
2023-02-01T10:11:52.074Z,18.50
2023-02-01T10:14:18.899Z,18.60
2023-02-01T10:16:58.937Z,18.60
2023-02-01T10:20:07.324Z,18.60
2023-02-01T10:23:10.397Z,18.70
2023-02-01T10:25:52.847Z,18.70
2023-02-01T10:28:22.446Z,18.70
2023-02-01T10:30:50.387Z,18.70
2023-02-01T10:33:32.961Z,18.70
2023-02-01T10:36:11.799Z,18.70
2023-02-01T10:38:38.777Z,18.70
2023-02-01T10:41:14.301Z,18.80
2023-02-01T10:43:41.587Z,18.70
2023-02-01T10:46:08.960Z,18.70
2023-02-01T10:48:36.526Z,18.80
2023-02-01T10:51:08.109Z,18.70
2023-02-01T10:53:48.444Z,18.80
2023-02-01T10:56:15.146Z,18.70
2023-02-01T10:58:47.701Z,18.80
2023-02-01T11:01:21.414Z,18.70
2023-02-01T11:03:56.884Z,18.80
2023-02-01T11:06:32.714Z,18.70
2023-02-01T11:09:11.500Z,18.70
2023-02-01T11:11:47.180Z,18.70
2023-02-01T11:14:25.420Z,18.80
2023-02-01T11:17:11.547Z,18.80
2023-02-01T11:19:39.481Z,18.80
2023-02-01T11:22:06.945Z,18.80
2023-02-01T11:24:36.688Z,18.80
2023-02-01T11:27:07.010Z,18.80
2023-02-01T11:29:40.308Z,18.80
2023-02-01T11:32:09.838Z,18.80
2023-02-01T11:34:50.007Z,18.80
2023-02-01T11:37:24.421Z,18.80
2023-02-01T11:39:59.220Z,18.80
2023-02-01T11:42:28.315Z,18.80
2023-02-01T11:45:40.336Z,18.90
2023-02-01T11:48:26.359Z,18.80
2023-02-01T11:51:18.912Z,18.80
2023-02-01T11:54:00.015Z,18.90
2023-02-01T11:56:38.224Z,18.90
2023-02-01T11:59:20.303Z,18.90
2023-02-01T12:02:00.566Z,18.90
2023-02-01T12:04:54.807Z,18.90
2023-02-01T12:07:39.404Z,18.90
2023-02-01T12:10:25.305Z,18.90
2023-02-01T12:12:57.510Z,18.90
2023-02-01T12:15:48.323Z,18.90
2023-02-01T12:18:30.337Z,18.90
2023-02-01T12:21:07.364Z,18.90
2023-02-01T12:23:58.725Z,18.90
2023-02-01T12:26:59.352Z,18.90
2023-02-01T12:29:32.042Z,18.90
2023-02-01T12:32:11.273Z,18.90
2023-02-01T12:34:49.751Z,18.90
2023-02-01T12:37:24.664Z,18.90
2023-02-01T12:40:00.264Z,18.90
2023-02-01T12:42:40.992Z,18.90
2023-02-01T12:45:43.915Z,19.00
2023-02-01T12:49:01.501Z,19.00
2023-02-01T12:51:34.053Z,19.00
2023-02-01T12:54:37.843Z,18.90
2023-02-01T12:57:11.629Z,18.90
2023-02-01T12:59:59.981Z,18.90
2023-02-01T13:02:42.964Z,18.90
2023-02-01T13:05:46.048Z,18.90
2023-02-01T13:08:18.941Z,18.90
2023-02-01T13:10:57.698Z,18.80
2023-02-01T13:13:36.354Z,18.80
2023-02-01T13:16:18.169Z,18.80
2023-02-01T13:18:50.736Z,18.80
2023-02-01T13:21:23.620Z,18.80
2023-02-01T13:23:53.515Z,18.70
2023-02-01T13:26:20.307Z,18.80
2023-02-01T13:29:04.239Z,18.80
2023-02-01T13:31:46.646Z,18.80
2023-02-01T13:34:42.881Z,18.90
2023-02-01T13:37:15.417Z,18.90
2023-02-01T13:39:52.019Z,18.90
2023-02-01T13:42:28.932Z,18.90
2023-02-01T13:45:05.103Z,18.90
2023-02-01T13:47:41.699Z,18.90
2023-02-01T13:50:26.171Z,18.90
2023-02-01T13:53:12.863Z,18.90
2023-02-01T13:55:42.261Z,18.90
2023-02-01T13:58:14.881Z,18.90
2023-02-01T14:00:46.383Z,19.00
2023-02-01T14:03:19.379Z,19.00
2023-02-01T14:05:47.692Z,19.00
2023-02-01T14:08:22.376Z,19.00
2023-02-01T14:10:59.901Z,19.00
2023-02-01T14:13:39.433Z,19.00
2023-02-01T14:16:06.649Z,19.00
2023-02-01T14:18:37.118Z,19.00
2023-02-01T14:21:31.792Z,19.00
2023-02-01T14:24:26.449Z,19.00
2023-02-01T14:26:55.189Z,19.00
2023-02-01T14:29:34.772Z,19.00
2023-02-01T14:32:03.793Z,19.10
2023-02-01T14:34:48.108Z,19.00
2023-02-01T14:37:17.710Z,19.00
2023-02-01T14:39:47.227Z,19.10
2023-02-01T14:42:35.424Z,19.00
2023-02-01T14:45:20.809Z,19.00
2023-02-01T14:47:48.707Z,19.00
2023-02-01T14:50:33.321Z,19.00
2023-02-01T14:53:12.390Z,19.00
2023-02-01T14:55:43.496Z,19.00
2023-02-01T14:58:47.551Z,19.10
2023-02-01T15:01:23.593Z,19.10
2023-02-01T15:04:06.706Z,19.10
2023-02-01T15:06:40.572Z,19.10
2023-02-01T15:09:13.312Z,19.10
2023-02-01T15:11:59.675Z,19.10
2023-02-01T15:14:28.615Z,19.10
2023-02-01T15:16:55.362Z,19.10
2023-02-01T15:19:24.238Z,19.10
2023-02-01T15:21:54.133Z,19.10
2023-02-01T15:24:26.464Z,19.10
2023-02-01T15:26:55.611Z,19.10
2023-02-01T15:29:28.346Z,19.10
2023-02-01T15:31:55.452Z,19.10
2023-02-01T15:34:23.226Z,19.10
2023-02-01T15:37:02.389Z,19.10
2023-02-01T15:39:31.724Z,19.10
2023-02-01T15:42:16.474Z,19.10
2023-02-01T15:47:24.933Z,19.00
2023-02-01T15:49:56.706Z,19.10
2023-02-01T15:52:42.317Z,19.10
2023-02-01T15:55:21.151Z,19.10
2023-02-01T15:57:48.198Z,19.00
2023-02-01T16:00:28.489Z,19.00
2023-02-01T16:03:06.573Z,18.90
2023-02-01T16:05:39.317Z,18.90
2023-02-01T16:08:27.418Z,18.90
2023-02-01T16:11:02.806Z,18.90
2023-02-01T16:13:29.510Z,18.90
2023-02-01T16:15:56.265Z,18.80
2023-02-01T16:18:22.838Z,18.90
2023-02-01T16:20:49.561Z,18.80
2023-02-01T16:23:16.313Z,18.90
2023-02-01T16:25:43.692Z,18.90
2023-02-01T16:28:10.364Z,19.00
2023-02-01T16:30:37.280Z,19.00
2023-02-01T16:33:06.105Z,19.00
2023-02-01T16:35:36.747Z,18.90
2023-02-01T16:38:15.170Z,19.00
2023-02-01T16:40:44.257Z,19.00
2023-02-01T16:43:22.979Z,19.00
2023-02-01T16:45:51.351Z,19.00
2023-02-01T16:48:21.041Z,19.00
2023-02-01T16:50:50.720Z,19.00
2023-02-01T16:53:18.549Z,19.00
2023-02-01T16:55:47.511Z,18.90
2023-02-01T16:58:14.654Z,18.90
2023-02-01T17:00:42.149Z,18.80
2023-02-01T17:03:10.523Z,18.90
2023-02-01T17:05:37.289Z,18.80
2023-02-01T17:08:07.565Z,18.80
2023-02-01T17:10:34.887Z,18.80
2023-02-01T17:13:02.883Z,18.80
2023-02-01T17:15:35.470Z,18.80
2023-02-01T17:18:03.225Z,18.80
2023-02-01T17:20:32.925Z,18.80
2023-02-01T17:23:00.333Z,18.70
2023-02-01T17:25:28.434Z,18.70
2023-02-01T17:27:55.136Z,18.70
2023-02-01T17:30:22.097Z,18.70
2023-02-01T17:32:48.788Z,18.70
2023-02-01T17:35:22.119Z,18.70
2023-02-01T17:37:50.175Z,18.70
2023-02-01T17:40:17.125Z,18.70
2023-02-01T17:42:44.310Z,18.70
2023-02-01T17:45:40.610Z,18.60
2023-02-01T17:48:08.374Z,18.70
2023-02-01T17:50:37.574Z,18.60
2023-02-01T17:53:06.006Z,18.70
2023-02-01T17:55:35.489Z,18.60
2023-02-01T17:58:02.223Z,18.60
2023-02-01T18:00:28.835Z,18.60
2023-02-01T18:02:57.028Z,18.60
2023-02-01T18:05:29.438Z,18.60
2023-02-01T18:07:56.125Z,18.60
2023-02-01T18:10:22.737Z,18.70
2023-02-01T18:12:49.403Z,18.60
2023-02-01T18:15:22.063Z,18.60
2023-02-01T18:17:49.156Z,18.60
2023-02-01T18:20:22.884Z,18.60
2023-02-01T18:22:49.725Z,18.60
2023-02-01T18:25:23.839Z,18.60
2023-02-01T18:27:52.586Z,18.60
2023-02-01T18:30:25.299Z,18.60
2023-02-01T18:32:51.979Z,18.60
2023-02-01T18:35:24.835Z,18.60
2023-02-01T18:37:53.340Z,18.60
2023-02-01T18:40:23.324Z,18.60
2023-02-01T18:42:50.566Z,18.50
2023-02-01T18:45:28.989Z,18.50
2023-02-01T18:47:55.681Z,18.50
2023-02-01T18:50:22.956Z,18.60
2023-02-01T18:52:53.812Z,18.60
2023-02-01T18:55:20.827Z,18.60
2023-02-01T18:57:47.780Z,18.60
2023-02-01T19:00:16.061Z,18.60
2023-02-01T19:02:43.079Z,18.60
2023-02-01T19:05:11.389Z,18.60
2023-02-01T19:07:39.031Z,18.60
2023-02-01T19:10:07.088Z,18.50
2023-02-01T19:12:34.132Z,18.60
2023-02-01T19:15:01.019Z,18.60
2023-02-01T19:17:30.502Z,18.60
2023-02-01T19:19:58.601Z,18.50
2023-02-01T19:22:26.497Z,18.50
2023-02-01T19:24:54.686Z,18.50
2023-02-01T19:27:21.740Z,18.50
2023-02-01T19:29:48.606Z,18.50
2023-02-01T19:32:15.279Z,18.50
2023-02-01T19:34:41.872Z,18.50
2023-02-01T19:37:09.193Z,18.50
2023-02-01T19:39:37.787Z,18.60
2023-02-01T19:42:05.083Z,18.50
2023-02-01T19:44:32.653Z,18.50
2023-02-01T19:46:59.472Z,18.50
2023-02-01T19:49:26.228Z,18.50
2023-02-01T19:51:53.054Z,18.50
2023-02-01T19:54:20.643Z,18.50
2023-02-01T19:56:51.069Z,18.50
2023-02-01T19:59:18.835Z,18.50
2023-02-01T20:01:46.592Z,18.40
2023-02-01T20:04:14.636Z,18.50
2023-02-01T20:06:49.105Z,18.50
2023-02-01T20:09:21.825Z,18.50
2023-02-01T20:11:49.253Z,18.50
2023-02-01T20:14:16.580Z,18.50
2023-02-01T20:16:43.629Z,18.50
2023-02-01T20:19:10.950Z,18.50
2023-02-01T20:21:39.173Z,18.50
2023-02-01T20:24:06.322Z,18.50
2023-02-01T20:26:34.453Z,18.50
2023-02-01T20:29:02.048Z,18.50
2023-02-01T20:31:29.725Z,18.40
2023-02-01T20:34:00.997Z,18.40
2023-02-01T20:36:29.264Z,18.40
2023-02-01T20:38:57.116Z,18.40
2023-02-01T20:41:25.018Z,18.40
2023-02-01T20:43:52.114Z,18.40
2023-02-01T20:46:19.477Z,18.40
2023-02-01T20:48:47.709Z,18.40
2023-02-01T20:51:16.765Z,18.40
2023-02-01T20:53:44.539Z,18.40
2023-02-01T20:56:12.856Z,18.40
2023-02-01T20:58:40.281Z,18.40
2023-02-01T21:01:07.492Z,18.40
2023-02-01T21:03:35.156Z,18.40
2023-02-01T21:06:02.920Z,18.40
2023-02-01T21:08:30.150Z,18.40
2023-02-01T21:11:02.796Z,18.40
2023-02-01T21:13:31.569Z,18.40
2023-02-01T21:15:58.644Z,18.40
2023-02-01T21:18:25.521Z,18.30
2023-02-01T21:20:52.261Z,18.40
2023-02-01T21:23:19.015Z,18.40
2023-02-01T21:25:45.926Z,18.30
2023-02-01T21:28:12.978Z,18.30
2023-02-01T21:30:39.747Z,18.30
2023-02-01T21:33:07.740Z,18.30
2023-02-01T21:35:34.428Z,18.30
2023-02-01T21:38:01.030Z,18.30
2023-02-01T21:40:27.719Z,18.30
2023-02-01T21:42:54.397Z,18.30
2023-02-01T21:45:21.103Z,18.40
2023-02-01T21:47:49.635Z,18.40
2023-02-01T21:50:18.962Z,18.40
2023-02-01T21:52:46.829Z,18.40
2023-02-01T21:55:14.310Z,18.40
2023-02-01T21:57:41.160Z,18.40
2023-02-01T22:00:09.295Z,18.30
2023-02-01T22:02:36.372Z,18.40
2023-02-01T22:05:05.252Z,18.40
2023-02-01T22:07:34.075Z,18.30
2023-02-01T22:10:01.700Z,18.30
2023-02-01T22:12:28.360Z,18.30
2023-02-01T22:14:54.971Z,18.30
2023-02-01T22:17:21.623Z,18.30
2023-02-01T22:19:48.206Z,18.30
2023-02-01T22:22:14.888Z,18.30
2023-02-01T22:24:41.498Z,18.30
2023-02-01T22:27:13.504Z,18.30
2023-02-01T22:29:41.802Z,18.30
2023-02-01T22:32:08.890Z,18.30
2023-02-01T22:34:35.551Z,18.30
2023-02-01T22:37:03.043Z,18.30
2023-02-01T22:39:29.705Z,18.20
2023-02-01T22:41:56.337Z,18.30
2023-02-01T22:44:23.657Z,18.30
2023-02-01T22:46:50.551Z,18.20
2023-02-01T22:49:17.173Z,18.20
2023-02-01T22:51:43.970Z,18.20
2023-02-01T22:54:17.363Z,18.20
2023-02-01T22:56:43.988Z,18.30
2023-02-01T22:59:13.395Z,18.30
2023-02-01T23:01:40.804Z,18.30
2023-02-01T23:04:11.034Z,18.30
2023-02-01T23:06:37.666Z,18.30
2023-02-01T23:09:19.387Z,18.20
2023-02-01T23:11:46.126Z,18.20
2023-02-01T23:14:13.916Z,18.20
2023-02-01T23:16:41.374Z,18.30
2023-02-01T23:19:08.310Z,18.20
2023-02-01T23:21:35.476Z,18.20
2023-02-01T23:24:04.702Z,18.20
2023-02-01T23:26:32.154Z,18.20
2023-02-01T23:28:59.541Z,18.20
2023-02-01T23:31:30.599Z,18.20
2023-02-01T23:33:59.759Z,18.20
2023-02-01T23:36:27.751Z,18.20
2023-02-01T23:38:54.885Z,18.20
2023-02-01T23:41:23.064Z,18.20
2023-02-01T23:43:59.291Z,18.20
2023-02-01T23:46:29.334Z,18.20
2023-02-01T23:48:56.659Z,18.20
2023-02-01T23:51:24.310Z,18.20
2023-02-01T23:53:51.414Z,18.20
2023-02-01T23:56:25.031Z,18.20
2023-02-01T23:58:52.154Z,18.10
